METAR Data

Data at: 1958 UTC 18 Oct 2018

METAR for:KPHX (Phoenix/Sky Harbor, AZ, US)
Text:KPHX 181951Z 09010KT 10SM FEW070 25/08 A3002 RMK AO2 SLP153 T02500078
Temperature: 25.0°C ( 77°F)
Dewpoint: 7.8°C ( 46°F) [RH = 33%]
Pressure (altimeter):30.02 inches Hg (1016.7 mb) [Sea level pressure: 1015.3 mb]
Winds:from the E (90 degrees) at 12 MPH (10 knots; 5.1 m/s)
Visibility:10 or more sm (16+ km)
Ceiling:at least 12,000 feet AGL
Clouds: few clouds at 7000 feet AGL